sensor_id;sensor_type;location;lat;lon;timestamp;P1;durP1;ratioP1;P2;durP2;ratioP2
8102;SDS011;4094;49.948;11.574;2023-12-04T00:00:47;26.20;;;23.90;;
8102;SDS011;4094;49.948;11.574;2023-12-04T00:03:37;27.47;;;24.83;;
8102;SDS011;4094;49.948;11.574;2023-12-04T00:06:27;26.13;;;23.63;;
8102;SDS011;4094;49.948;11.574;2023-12-04T00:09:17;26.50;;;24.07;;
8102;SDS011;4094;49.948;11.574;2023-12-04T00:12:06;27.53;;;25.03;;
8102;SDS011;4094;49.948;11.574;2023-12-04T00:14:56;26.93;;;24.53;;
8102;SDS011;4094;49.948;11.574;2023-12-04T00:17:47;27.33;;;24.83;;
8102;SDS011;4094;49.948;11.574;2023-12-04T00:20:36;26.20;;;23.90;;
8102;SDS011;4094;49.948;11.574;2023-12-04T00:23:25;26.23;;;23.83;;
8102;SDS011;4094;49.948;11.574;2023-12-04T00:26:15;27.80;;;25.10;;
8102;SDS011;4094;49.948;11.574;2023-12-04T00:29:04;27.20;;;24.70;;
8102;SDS011;4094;49.948;11.574;2023-12-04T00:31:54;26.40;;;23.90;;
8102;SDS011;4094;49.948;11.574;2023-12-04T00:34:46;28.17;;;25.57;;
8102;SDS011;4094;49.948;11.574;2023-12-04T00:37:35;26.77;;;24.27;;
8102;SDS011;4094;49.948;11.574;2023-12-04T00:40:26;26.07;;;23.63;;
8102;SDS011;4094;49.948;11.574;2023-12-04T00:43:15;26.60;;;24.27;;
8102;SDS011;4094;49.948;11.574;2023-12-04T00:46:04;26.70;;;24.10;;
8102;SDS011;4094;49.948;11.574;2023-12-04T00:48:55;25.30;;;22.97;;
8102;SDS011;4094;49.948;11.574;2023-12-04T00:51:46;27.93;;;25.30;;
8102;SDS011;4094;49.948;11.574;2023-12-04T00:54:35;26.67;;;24.27;;
8102;SDS011;4094;49.948;11.574;2023-12-04T00:57:27;26.87;;;24.37;;
8102;SDS011;4094;49.948;11.574;2023-12-04T01:00:17;27.47;;;24.87;;
8102;SDS011;4094;49.948;11.574;2023-12-04T01:03:07;27.13;;;24.50;;
8102;SDS011;4094;49.948;11.574;2023-12-04T01:05:57;26.80;;;24.37;;
8102;SDS011;4094;49.948;11.574;2023-12-04T01:08:47;26.83;;;24.40;;
8102;SDS011;4094;49.948;11.574;2023-12-04T01:11:37;27.20;;;24.60;;
8102;SDS011;4094;49.948;11.574;2023-12-04T01:14:27;25.40;;;23.10;;
8102;SDS011;4094;49.948;11.574;2023-12-04T01:17:16;26.20;;;23.80;;
8102;SDS011;4094;49.948;11.574;2023-12-04T01:20:06;26.50;;;24.13;;
8102;SDS011;4094;49.948;11.574;2023-12-04T01:22:56;26.80;;;24.37;;
8102;SDS011;4094;49.948;11.574;2023-12-04T01:25:47;26.50;;;24.20;;
8102;SDS011;4094;49.948;11.574;2023-12-04T01:28:36;25.77;;;23.47;;
8102;SDS011;4094;49.948;11.574;2023-12-04T01:31:26;26.47;;;24.07;;
8102;SDS011;4094;49.948;11.574;2023-12-04T01:34:15;27.37;;;24.87;;
8102;SDS011;4094;49.948;11.574;2023-12-04T01:37:04;27.00;;;24.50;;
8102;SDS011;4094;49.948;11.574;2023-12-04T01:39:53;27.03;;;24.53;;
8102;SDS011;4094;49.948;11.574;2023-12-04T01:42:44;26.17;;;23.67;;
8102;SDS011;4094;49.948;11.574;2023-12-04T01:45:33;26.37;;;23.97;;
8102;SDS011;4094;49.948;11.574;2023-12-04T01:48:23;25.40;;;23.10;;
8102;SDS011;4094;49.948;11.574;2023-12-04T01:51:13;26.03;;;23.73;;
8102;SDS011;4094;49.948;11.574;2023-12-04T01:54:03;25.40;;;23.10;;
8102;SDS011;4094;49.948;11.574;2023-12-04T01:56:53;25.17;;;22.87;;
8102;SDS011;4094;49.948;11.574;2023-12-04T01:59:44;26.50;;;24.00;;
8102;SDS011;4094;49.948;11.574;2023-12-04T02:02:34;25.93;;;23.60;;
8102;SDS011;4094;49.948;11.574;2023-12-04T02:05:23;26.50;;;24.00;;
8102;SDS011;4094;49.948;11.574;2023-12-04T02:08:15;25.17;;;22.87;;
8102;SDS011;4094;49.948;11.574;2023-12-04T02:11:05;25.57;;;23.27;;
8102;SDS011;4094;49.948;11.574;2023-12-04T02:13:55;25.27;;;23.03;;
8102;SDS011;4094;49.948;11.574;2023-12-04T02:16:46;26.43;;;24.03;;
8102;SDS011;4094;49.948;11.574;2023-12-04T02:19:36;26.20;;;23.80;;
8102;SDS011;4094;49.948;11.574;2023-12-04T02:22:25;26.53;;;24.13;;
8102;SDS011;4094;49.948;11.574;2023-12-04T02:25:16;24.60;;;22.30;;
8102;SDS011;4094;49.948;11.574;2023-12-04T02:28:21;24.63;;;22.43;;
8102;SDS011;4094;49.948;11.574;2023-12-04T02:31:11;24.03;;;21.80;;
8102;SDS011;4094;49.948;11.574;2023-12-04T02:34:01;23.53;;;21.43;;
8102;SDS011;4094;49.948;11.574;2023-12-04T02:36:55;23.87;;;21.87;;
8102;SDS011;4094;49.948;11.574;2023-12-04T02:39:46;26.00;;;23.37;;
8102;SDS011;4094;49.948;11.574;2023-12-04T02:42:38;24.63;;;22.43;;
8102;SDS011;4094;49.948;11.574;2023-12-04T02:45:28;24.70;;;22.57;;
8102;SDS011;4094;49.948;11.574;2023-12-04T02:48:17;22.87;;;20.77;;
8102;SDS011;4094;49.948;11.574;2023-12-04T02:51:06;23.80;;;21.70;;
8102;SDS011;4094;49.948;11.574;2023-12-04T02:53:56;23.53;;;21.53;;
8102;SDS011;4094;49.948;11.574;2023-12-04T02:56:45;23.60;;;21.50;;
8102;SDS011;4094;49.948;11.574;2023-12-04T02:59:36;24.27;;;22.23;;
8102;SDS011;4094;49.948;11.574;2023-12-04T03:02:25;24.40;;;22.30;;
8102;SDS011;4094;49.948;11.574;2023-12-04T03:05:14;24.70;;;22.50;;
8102;SDS011;4094;49.948;11.574;2023-12-04T03:08:04;23.73;;;21.63;;
8102;SDS011;4094;49.948;11.574;2023-12-04T03:10:53;25.50;;;23.20;;
8102;SDS011;4094;49.948;11.574;2023-12-04T03:13:42;24.03;;;21.93;;
8102;SDS011;4094;49.948;11.574;2023-12-04T03:16:33;23.90;;;21.80;;
8102;SDS011;4094;49.948;11.574;2023-12-04T03:19:22;25.70;;;23.40;;
8102;SDS011;4094;49.948;11.574;2023-12-04T03:22:12;23.37;;;21.40;;
8102;SDS011;4094;49.948;11.574;2023-12-04T03:25:01;26.27;;;23.97;;
8102;SDS011;4094;49.948;11.574;2023-12-04T03:27:51;25.67;;;23.37;;
8102;SDS011;4094;49.948;11.574;2023-12-04T03:30:40;25.27;;;23.00;;
8102;SDS011;4094;49.948;11.574;2023-12-04T03:33:32;24.53;;;22.27;;
8102;SDS011;4094;49.948;11.574;2023-12-04T03:36:22;23.83;;;21.77;;
8102;SDS011;4094;49.948;11.574;2023-12-04T03:39:11;25.00;;;22.83;;
8102;SDS011;4094;49.948;11.574;2023-12-04T03:42:00;26.30;;;23.87;;
8102;SDS011;4094;49.948;11.574;2023-12-04T03:44:50;23.73;;;21.67;;
8102;SDS011;4094;49.948;11.574;2023-12-04T03:47:39;24.63;;;22.53;;
8102;SDS011;4094;49.948;11.574;2023-12-04T03:50:30;25.77;;;23.47;;
8102;SDS011;4094;49.948;11.574;2023-12-04T03:53:19;26.30;;;23.80;;
8102;SDS011;4094;49.948;11.574;2023-12-04T03:56:10;24.77;;;22.57;;
8102;SDS011;4094;49.948;11.574;2023-12-04T03:58:59;24.93;;;22.73;;
8102;SDS011;4094;49.948;11.574;2023-12-04T04:01:49;25.43;;;23.23;;
8102;SDS011;4094;49.948;11.574;2023-12-04T04:04:38;24.10;;;22.00;;
8102;SDS011;4094;49.948;11.574;2023-12-04T04:07:28;25.40;;;23.20;;
8102;SDS011;4094;49.948;11.574;2023-12-04T04:10:18;24.77;;;22.57;;
8102;SDS011;4094;49.948;11.574;2023-12-04T04:13:08;25.07;;;22.77;;
8102;SDS011;4094;49.948;11.574;2023-12-04T04:15:57;25.07;;;22.93;;
8102;SDS011;4094;49.948;11.574;2023-12-04T04:18:47;24.63;;;22.43;;
8102;SDS011;4094;49.948;11.574;2023-12-04T04:21:39;25.23;;;23.03;;
8102;SDS011;4094;49.948;11.574;2023-12-04T04:24:29;24.53;;;22.23;;
8102;SDS011;4094;49.948;11.574;2023-12-04T04:27:19;26.10;;;23.70;;
8102;SDS011;4094;49.948;11.574;2023-12-04T04:30:08;27.57;;;25.07;;
8102;SDS011;4094;49.948;11.574;2023-12-04T04:32:58;25.90;;;23.60;;
8102;SDS011;4094;49.948;11.574;2023-12-04T04:35:48;26.37;;;23.77;;
8102;SDS011;4094;49.948;11.574;2023-12-04T04:38:38;26.20;;;23.67;;
8102;SDS011;4094;49.948;11.574;2023-12-04T04:41:29;25.90;;;23.60;;
8102;SDS011;4094;49.948;11.574;2023-12-04T04:44:19;26.63;;;24.23;;
8102;SDS011;4094;49.948;11.574;2023-12-04T04:47:11;26.07;;;23.60;;
8102;SDS011;4094;49.948;11.574;2023-12-04T04:50:01;25.63;;;23.33;;
8102;SDS011;4094;49.948;11.574;2023-12-04T04:52:51;26.40;;;24.07;;
8102;SDS011;4094;49.948;11.574;2023-12-04T04:55:40;25.83;;;23.53;;
8102;SDS011;4094;49.948;11.574;2023-12-04T04:58:37;27.40;;;24.90;;
8102;SDS011;4094;49.948;11.574;2023-12-04T05:01:26;27.77;;;25.27;;
8102;SDS011;4094;49.948;11.574;2023-12-04T05:04:15;26.47;;;23.87;;
8102;SDS011;4094;49.948;11.574;2023-12-04T05:07:05;27.37;;;24.77;;
8102;SDS011;4094;49.948;11.574;2023-12-04T05:09:55;26.53;;;24.03;;
8102;SDS011;4094;49.948;11.574;2023-12-04T05:12:44;26.47;;;24.00;;
8102;SDS011;4094;49.948;11.574;2023-12-04T05:15:35;27.40;;;24.83;;
8102;SDS011;4094;49.948;11.574;2023-12-04T05:18:25;27.30;;;24.80;;
8102;SDS011;4094;49.948;11.574;2023-12-04T05:21:14;25.23;;;22.97;;
8102;SDS011;4094;49.948;11.574;2023-12-04T05:24:05;25.40;;;23.10;;
8102;SDS011;4094;49.948;11.574;2023-12-04T05:26:54;26.53;;;24.07;;
8102;SDS011;4094;49.948;11.574;2023-12-04T05:29:44;26.77;;;24.27;;
8102;SDS011;4094;49.948;11.574;2023-12-04T05:32:36;26.67;;;24.17;;
8102;SDS011;4094;49.948;11.574;2023-12-04T05:35:25;25.50;;;23.00;;
8102;SDS011;4094;49.948;11.574;2023-12-04T05:38:14;26.43;;;23.93;;
8102;SDS011;4094;49.948;11.574;2023-12-04T05:41:04;26.20;;;23.80;;
8102;SDS011;4094;49.948;11.574;2023-12-04T05:43:55;26.03;;;23.73;;
8102;SDS011;4094;49.948;11.574;2023-12-04T05:46:44;25.50;;;23.20;;
8102;SDS011;4094;49.948;11.574;2023-12-04T05:49:35;26.47;;;24.13;;
8102;SDS011;4094;49.948;11.574;2023-12-04T05:52:24;26.10;;;23.80;;
8102;SDS011;4094;49.948;11.574;2023-12-04T05:55:14;27.17;;;24.67;;
8102;SDS011;4094;49.948;11.574;2023-12-04T05:58:03;25.23;;;23.07;;
8102;SDS011;4094;49.948;11.574;2023-12-04T06:00:52;24.67;;;22.37;;
8102;SDS011;4094;49.948;11.574;2023-12-04T06:03:42;25.30;;;23.00;;
8102;SDS011;4094;49.948;11.574;2023-12-04T06:06:32;24.30;;;22.17;;
8102;SDS011;4094;49.948;11.574;2023-12-04T06:09:22;24.73;;;22.53;;
8102;SDS011;4094;49.948;11.574;2023-12-04T06:12:11;25.43;;;23.13;;
8102;SDS011;4094;49.948;11.574;2023-12-04T06:15:01;26.00;;;23.50;;
8102;SDS011;4094;49.948;11.574;2023-12-04T06:17:51;25.40;;;23.00;;
8102;SDS011;4094;49.948;11.574;2023-12-04T06:20:40;23.80;;;21.70;;
8102;SDS011;4094;49.948;11.574;2023-12-04T06:23:31;25.60;;;23.30;;
8102;SDS011;4094;49.948;11.574;2023-12-04T06:26:21;24.80;;;22.60;;
8102;SDS011;4094;49.948;11.574;2023-12-04T06:29:15;25.67;;;23.17;;
8102;SDS011;4094;49.948;11.574;2023-12-04T06:32:06;24.67;;;22.47;;
8102;SDS011;4094;49.948;11.574;2023-12-04T06:34:56;24.60;;;22.30;;
8102;SDS011;4094;49.948;11.574;2023-12-04T06:37:47;24.60;;;22.47;;
8102;SDS011;4094;49.948;11.574;2023-12-04T06:40:39;23.47;;;21.37;;
8102;SDS011;4094;49.948;11.574;2023-12-04T06:43:29;24.23;;;22.10;;
8102;SDS011;4094;49.948;11.574;2023-12-04T06:46:18;23.57;;;21.50;;
8102;SDS011;4094;49.948;11.574;2023-12-04T06:49:25;22.73;;;20.73;;
8102;SDS011;4094;49.948;11.574;2023-12-04T06:52:18;23.13;;;21.00;;
8102;SDS011;4094;49.948;11.574;2023-12-04T06:55:08;22.93;;;20.93;;
8102;SDS011;4094;49.948;11.574;2023-12-04T06:57:59;22.10;;;20.20;;
8102;SDS011;4094;49.948;11.574;2023-12-04T07:00:48;21.47;;;19.73;;
8102;SDS011;4094;49.948;11.574;2023-12-04T07:03:37;22.37;;;20.27;;
8102;SDS011;4094;49.948;11.574;2023-12-04T07:06:27;23.03;;;20.93;;
8102;SDS011;4094;49.948;11.574;2023-12-04T07:09:17;22.17;;;20.17;;
8102;SDS011;4094;49.948;11.574;2023-12-04T07:12:06;22.00;;;20.00;;
8102;SDS011;4094;49.948;11.574;2023-12-04T07:14:57;21.73;;;19.83;;
8102;SDS011;4094;49.948;11.574;2023-12-04T07:17:46;21.53;;;19.73;;
8102;SDS011;4094;49.948;11.574;2023-12-04T07:20:36;22.13;;;20.13;;
8102;SDS011;4094;49.948;11.574;2023-12-04T07:23:25;21.97;;;20.10;;
8102;SDS011;4094;49.948;11.574;2023-12-04T07:26:21;22.20;;;20.20;;
8102;SDS011;4094;49.948;11.574;2023-12-04T07:29:16;21.77;;;19.87;;
8102;SDS011;4094;49.948;11.574;2023-12-04T07:32:07;20.53;;;18.93;;
8102;SDS011;4094;49.948;11.574;2023-12-04T07:34:56;21.83;;;19.83;;
8102;SDS011;4094;49.948;11.574;2023-12-04T07:37:46;21.80;;;20.00;;
8102;SDS011;4094;49.948;11.574;2023-12-04T07:40:36;21.63;;;19.70;;
8102;SDS011;4094;49.948;11.574;2023-12-04T07:43:26;21.80;;;20.03;;
8102;SDS011;4094;49.948;11.574;2023-12-04T07:46:15;21.00;;;19.20;;
8102;SDS011;4094;49.948;11.574;2023-12-04T07:49:12;21.23;;;19.33;;
8102;SDS011;4094;49.948;11.574;2023-12-04T07:52:03;19.87;;;18.17;;
8102;SDS011;4094;49.948;11.574;2023-12-04T07:54:53;21.07;;;19.27;;
8102;SDS011;4094;49.948;11.574;2023-12-04T07:57:42;21.53;;;19.70;;
8102;SDS011;4094;49.948;11.574;2023-12-04T08:00:32;21.70;;;19.80;;
8102;SDS011;4094;49.948;11.574;2023-12-04T08:03:21;21.03;;;19.23;;
8102;SDS011;4094;49.948;11.574;2023-12-04T08:06:12;19.90;;;18.20;;
8102;SDS011;4094;49.948;11.574;2023-12-04T08:09:03;21.03;;;19.33;;
8102;SDS011;4094;49.948;11.574;2023-12-04T08:11:53;20.07;;;18.47;;
8102;SDS011;4094;49.948;11.574;2023-12-04T08:14:44;20.50;;;18.90;;
8102;SDS011;4094;49.948;11.574;2023-12-04T08:17:34;19.77;;;18.17;;
8102;SDS011;4094;49.948;11.574;2023-12-04T08:20:23;20.63;;;18.87;;
8102;SDS011;4094;49.948;11.574;2023-12-04T08:23:24;20.67;;;18.87;;
8102;SDS011;4094;49.948;11.574;2023-12-04T08:26:20;19.90;;;18.20;;
8102;SDS011;4094;49.948;11.574;2023-12-04T08:29:12;19.07;;;17.67;;
8102;SDS011;4094;49.948;11.574;2023-12-04T08:32:01;19.90;;;18.30;;
8102;SDS011;4094;49.948;11.574;2023-12-04T08:34:51;19.60;;;18.00;;
8102;SDS011;4094;49.948;11.574;2023-12-04T08:37:40;20.07;;;18.40;;
8102;SDS011;4094;49.948;11.574;2023-12-04T08:40:31;19.80;;;18.20;;
8102;SDS011;4094;49.948;11.574;2023-12-04T08:43:21;19.77;;;18.27;;
8102;SDS011;4094;49.948;11.574;2023-12-04T08:46:12;20.30;;;18.63;;
8102;SDS011;4094;49.948;11.574;2023-12-04T08:49:02;19.63;;;18.03;;
8102;SDS011;4094;49.948;11.574;2023-12-04T08:51:52;19.83;;;18.30;;
8102;SDS011;4094;49.948;11.574;2023-12-04T08:54:42;19.43;;;17.90;;
8102;SDS011;4094;49.948;11.574;2023-12-04T08:57:32;19.53;;;17.83;;
8102;SDS011;4094;49.948;11.574;2023-12-04T09:00:22;18.77;;;17.37;;
8102;SDS011;4094;49.948;11.574;2023-12-04T09:03:11;18.73;;;17.23;;
8102;SDS011;4094;49.948;11.574;2023-12-04T09:06:12;19.77;;;18.17;;
8102;SDS011;4094;49.948;11.574;2023-12-04T09:09:03;19.10;;;17.60;;
8102;SDS011;4094;49.948;11.574;2023-12-04T09:11:59;18.30;;;16.90;;
8102;SDS011;4094;49.948;11.574;2023-12-04T09:14:49;18.80;;;17.23;;
8102;SDS011;4094;49.948;11.574;2023-12-04T09:17:38;18.40;;;17.00;;
8102;SDS011;4094;49.948;11.574;2023-12-04T09:20:29;18.53;;;17.13;;
8102;SDS011;4094;49.948;11.574;2023-12-04T09:23:19;19.47;;;17.97;;
8102;SDS011;4094;49.948;11.574;2023-12-04T09:26:10;19.60;;;18.13;;
8102;SDS011;4094;49.948;11.574;2023-12-04T09:29:00;19.57;;;17.97;;
8102;SDS011;4094;49.948;11.574;2023-12-04T09:31:52;19.83;;;18.23;;
8102;SDS011;4094;49.948;11.574;2023-12-04T09:34:41;19.57;;;18.00;;
8102;SDS011;4094;49.948;11.574;2023-12-04T09:37:30;19.00;;;17.47;;
8102;SDS011;4094;49.948;11.574;2023-12-04T09:40:20;18.73;;;17.33;;
8102;SDS011;4094;49.948;11.574;2023-12-04T09:43:09;18.33;;;16.83;;
8102;SDS011;4094;49.948;11.574;2023-12-04T09:45:58;18.43;;;17.03;;
8102;SDS011;4094;49.948;11.574;2023-12-04T09:48:50;18.80;;;17.30;;
8102;SDS011;4094;49.948;11.574;2023-12-04T09:51:41;17.70;;;16.40;;
8102;SDS011;4094;49.948;11.574;2023-12-04T09:54:30;17.67;;;16.27;;
8102;SDS011;4094;49.948;11.574;2023-12-04T09:57:22;18.20;;;16.80;;
8102;SDS011;4094;49.948;11.574;2023-12-04T10:00:13;17.23;;;15.97;;
8102;SDS011;4094;49.948;11.574;2023-12-04T10:03:03;17.53;;;16.13;;
8102;SDS011;4094;49.948;11.574;2023-12-04T10:05:54;17.60;;;16.10;;
8102;SDS011;4094;49.948;11.574;2023-12-04T10:08:46;17.40;;;16.00;;
8102;SDS011;4094;49.948;11.574;2023-12-04T10:11:39;18.10;;;16.70;;
8102;SDS011;4094;49.948;11.574;2023-12-04T10:14:29;16.63;;;15.50;;
8102;SDS011;4094;49.948;11.574;2023-12-04T10:17:19;16.90;;;15.60;;
8102;SDS011;4094;49.948;11.574;2023-12-04T10:20:09;18.33;;;16.93;;
8102;SDS011;4094;49.948;11.574;2023-12-04T10:23:02;16.87;;;15.57;;
8102;SDS011;4094;49.948;11.574;2023-12-04T10:25:51;17.37;;;16.03;;
8102;SDS011;4094;49.948;11.574;2023-12-04T10:28:42;17.03;;;15.73;;
8102;SDS011;4094;49.948;11.574;2023-12-04T10:31:48;17.57;;;16.27;;
8102;SDS011;4094;49.948;11.574;2023-12-04T10:34:40;16.70;;;15.47;;
8102;SDS011;4094;49.948;11.574;2023-12-04T10:37:31;16.50;;;15.30;;
8102;SDS011;4094;49.948;11.574;2023-12-04T10:40:28;17.13;;;15.93;;
8102;SDS011;4094;49.948;11.574;2023-12-04T10:43:32;16.87;;;15.67;;
8102;SDS011;4094;49.948;11.574;2023-12-04T10:46:23;17.27;;;15.97;;
8102;SDS011;4094;49.948;11.574;2023-12-04T10:49:14;17.77;;;16.40;;
8102;SDS011;4094;49.948;11.574;2023-12-04T10:52:06;17.67;;;16.33;;
8102;SDS011;4094;49.948;11.574;2023-12-04T10:54:56;16.67;;;15.47;;
8102;SDS011;4094;49.948;11.574;2023-12-04T10:57:51;17.50;;;16.20;;
8102;SDS011;4094;49.948;11.574;2023-12-04T11:00:44;17.30;;;16.03;;
8102;SDS011;4094;49.948;11.574;2023-12-04T11:03:36;17.33;;;16.03;;
8102;SDS011;4094;49.948;11.574;2023-12-04T11:06:35;17.87;;;16.57;;
8102;SDS011;4094;49.948;11.574;2023-12-04T11:09:29;17.17;;;15.87;;
8102;SDS011;4094;49.948;11.574;2023-12-04T11:12:21;17.47;;;15.77;;
8102;SDS011;4094;49.948;11.574;2023-12-04T11:15:20;17.63;;;16.13;;
8102;SDS011;4094;49.948;11.574;2023-12-04T11:18:14;17.83;;;16.43;;
8102;SDS011;4094;49.948;11.574;2023-12-04T11:21:05;18.33;;;16.67;;
8102;SDS011;4094;49.948;11.574;2023-12-04T11:23:56;18.33;;;16.93;;
8102;SDS011;4094;49.948;11.574;2023-12-04T11:26:47;16.67;;;15.17;;
8102;SDS011;4094;49.948;11.574;2023-12-04T11:29:38;15.90;;;14.70;;
8102;SDS011;4094;49.948;11.574;2023-12-04T11:32:29;15.93;;;14.73;;
8102;SDS011;4094;49.948;11.574;2023-12-04T11:35:20;17.73;;;16.23;;
8102;SDS011;4094;49.948;11.574;2023-12-04T11:38:10;16.57;;;15.37;;
8102;SDS011;4094;49.948;11.574;2023-12-04T11:41:11;16.97;;;15.57;;
8102;SDS011;4094;49.948;11.574;2023-12-04T11:44:05;16.60;;;14.90;;
8102;SDS011;4094;49.948;11.574;2023-12-04T11:47:02;16.17;;;14.97;;
8102;SDS011;4094;49.948;11.574;2023-12-04T11:49:55;17.00;;;15.60;;
8102;SDS011;4094;49.948;11.574;2023-12-04T11:52:47;17.07;;;15.73;;
8102;SDS011;4094;49.948;11.574;2023-12-04T11:55:37;16.53;;;15.23;;
8102;SDS011;4094;49.948;11.574;2023-12-04T11:58:29;17.13;;;15.83;;
8102;SDS011;4094;49.948;11.574;2023-12-04T12:01:20;16.17;;;15.00;;
8102;SDS011;4094;49.948;11.574;2023-12-04T12:04:09;15.87;;;14.77;;
8102;SDS011;4094;49.948;11.574;2023-12-04T12:07:01;16.50;;;15.33;;
8102;SDS011;4094;49.948;11.574;2023-12-04T12:09:54;18.50;;;16.63;;
8102;SDS011;4094;49.948;11.574;2023-12-04T12:12:44;16.83;;;15.37;;
8102;SDS011;4094;49.948;11.574;2023-12-04T12:15:34;17.00;;;15.80;;
8102;SDS011;4094;49.948;11.574;2023-12-04T12:18:23;16.43;;;15.27;;
8102;SDS011;4094;49.948;11.574;2023-12-04T12:21:13;17.90;;;16.50;;
8102;SDS011;4094;49.948;11.574;2023-12-04T12:24:06;17.47;;;16.27;;
8102;SDS011;4094;49.948;11.574;2023-12-04T12:26:56;16.33;;;15.03;;
8102;SDS011;4094;49.948;11.574;2023-12-04T12:29:46;17.60;;;16.03;;
8102;SDS011;4094;49.948;11.574;2023-12-04T12:32:35;17.70;;;16.17;;
8102;SDS011;4094;49.948;11.574;2023-12-04T12:35:25;17.43;;;16.17;;
8102;SDS011;4094;49.948;11.574;2023-12-04T12:38:15;16.60;;;15.40;;
8102;SDS011;4094;49.948;11.574;2023-12-04T12:41:07;16.97;;;15.67;;
8102;SDS011;4094;49.948;11.574;2023-12-04T12:44:00;17.60;;;16.10;;
8102;SDS011;4094;49.948;11.574;2023-12-04T12:46:51;18.10;;;16.27;;
8102;SDS011;4094;49.948;11.574;2023-12-04T12:49:41;18.27;;;16.83;;
8102;SDS011;4094;49.948;11.574;2023-12-04T12:52:30;18.50;;;16.80;;
8102;SDS011;4094;49.948;11.574;2023-12-04T12:55:28;18.77;;;16.97;;
8102;SDS011;4094;49.948;11.574;2023-12-04T12:58:30;18.17;;;16.67;;
8102;SDS011;4094;49.948;11.574;2023-12-04T13:01:22;17.63;;;16.13;;
8102;SDS011;4094;49.948;11.574;2023-12-04T13:04:13;17.67;;;16.27;;
8102;SDS011;4094;49.948;11.574;2023-12-04T13:07:03;18.73;;;17.13;;
8102;SDS011;4094;49.948;11.574;2023-12-04T13:09:54;17.00;;;15.73;;
8102;SDS011;4094;49.948;11.574;2023-12-04T13:12:43;19.27;;;17.57;;
8102;SDS011;4094;49.948;11.574;2023-12-04T13:15:34;18.53;;;16.77;;
8102;SDS011;4094;49.948;11.574;2023-12-04T13:18:24;18.23;;;16.90;;
8102;SDS011;4094;49.948;11.574;2023-12-04T13:21:15;17.67;;;16.30;;
8102;SDS011;4094;49.948;11.574;2023-12-04T13:24:06;17.23;;;15.93;;
8102;SDS011;4094;49.948;11.574;2023-12-04T13:26:57;18.03;;;16.53;;
8102;SDS011;4094;49.948;11.574;2023-12-04T13:29:46;17.57;;;16.27;;
8102;SDS011;4094;49.948;11.574;2023-12-04T13:32:39;18.43;;;16.97;;
8102;SDS011;4094;49.948;11.574;2023-12-04T13:35:29;17.93;;;16.63;;
8102;SDS011;4094;49.948;11.574;2023-12-04T13:38:19;18.20;;;16.60;;
8102;SDS011;4094;49.948;11.574;2023-12-04T13:41:17;17.73;;;16.07;;
8102;SDS011;4094;49.948;11.574;2023-12-04T13:44:27;17.77;;;16.47;;
8102;SDS011;4094;49.948;11.574;2023-12-04T13:47:16;18.33;;;16.90;;
8102;SDS011;4094;49.948;11.574;2023-12-04T13:50:08;18.53;;;17.03;;
8102;SDS011;4094;49.948;11.574;2023-12-04T13:52:59;17.33;;;16.03;;
8102;SDS011;4094;49.948;11.574;2023-12-04T13:55:48;17.63;;;16.23;;
8102;SDS011;4094;49.948;11.574;2023-12-04T13:58:58;17.83;;;16.53;;
8102;SDS011;4094;49.948;11.574;2023-12-04T14:01:49;17.17;;;15.97;;
8102;SDS011;4094;49.948;11.574;2023-12-04T14:04:41;18.17;;;16.70;;
8102;SDS011;4094;49.948;11.574;2023-12-04T14:07:32;17.57;;;16.17;;
8102;SDS011;4094;49.948;11.574;2023-12-04T14:10:28;18.07;;;16.57;;
8102;SDS011;4094;49.948;11.574;2023-12-04T14:13:18;18.70;;;17.30;;
8102;SDS011;4094;49.948;11.574;2023-12-04T14:16:08;17.77;;;16.37;;
8102;SDS011;4094;49.948;11.574;2023-12-04T14:18:58;17.13;;;15.73;;
8102;SDS011;4094;49.948;11.574;2023-12-04T14:21:48;17.67;;;16.17;;
8102;SDS011;4094;49.948;11.574;2023-12-04T14:24:39;18.07;;;16.67;;
8102;SDS011;4094;49.948;11.574;2023-12-04T14:27:29;18.73;;;17.13;;
8102;SDS011;4094;49.948;11.574;2023-12-04T14:30:18;16.73;;;15.53;;
8102;SDS011;4094;49.948;11.574;2023-12-04T14:33:09;17.43;;;16.00;;
8102;SDS011;4094;49.948;11.574;2023-12-04T14:35:58;18.67;;;17.00;;
8102;SDS011;4094;49.948;11.574;2023-12-04T14:38:48;17.60;;;16.20;;
8102;SDS011;4094;49.948;11.574;2023-12-04T14:41:38;17.20;;;15.77;;
8102;SDS011;4094;49.948;11.574;2023-12-04T14:44:28;17.87;;;16.43;;
8102;SDS011;4094;49.948;11.574;2023-12-04T14:47:17;19.23;;;17.30;;
8102;SDS011;4094;49.948;11.574;2023-12-04T14:50:07;17.87;;;16.30;;
8102;SDS011;4094;49.948;11.574;2023-12-04T14:52:58;17.97;;;16.57;;
8102;SDS011;4094;49.948;11.574;2023-12-04T14:56:02;16.97;;;15.67;;
8102;SDS011;4094;49.948;11.574;2023-12-04T14:59:23;16.93;;;15.63;;
8102;SDS011;4094;49.948;11.574;2023-12-04T15:02:26;17.93;;;16.33;;
8102;SDS011;4094;49.948;11.574;2023-12-04T15:05:48;17.10;;;15.60;;
8102;SDS011;4094;49.948;11.574;2023-12-04T15:09:15;17.70;;;16.30;;
8102;SDS011;4094;49.948;11.574;2023-12-04T15:12:27;16.93;;;15.63;;
8102;SDS011;4094;49.948;11.574;2023-12-04T15:15:31;18.00;;;16.37;;
8102;SDS011;4094;49.948;11.574;2023-12-04T15:18:30;17.57;;;16.27;;
8102;SDS011;4094;49.948;11.574;2023-12-04T15:21:24;16.90;;;15.57;;
8102;SDS011;4094;49.948;11.574;2023-12-04T15:24:14;17.90;;;16.60;;
8102;SDS011;4094;49.948;11.574;2023-12-04T15:27:04;18.50;;;17.00;;
8102;SDS011;4094;49.948;11.574;2023-12-04T15:29:53;16.80;;;15.50;;
8102;SDS011;4094;49.948;11.574;2023-12-04T15:32:43;17.73;;;16.33;;
8102;SDS011;4094;49.948;11.574;2023-12-04T15:35:31;18.67;;;17.07;;
8102;SDS011;4094;49.948;11.574;2023-12-04T15:38:21;16.20;;;14.90;;
8102;SDS011;4094;49.948;11.574;2023-12-04T15:41:11;17.57;;;16.27;;
8102;SDS011;4094;49.948;11.574;2023-12-04T15:44:02;17.33;;;16.03;;
8102;SDS011;4094;49.948;11.574;2023-12-04T15:46:51;17.17;;;15.73;;
8102;SDS011;4094;49.948;11.574;2023-12-04T15:49:42;17.23;;;15.93;;
8102;SDS011;4094;49.948;11.574;2023-12-04T15:52:31;18.10;;;16.77;;
8102;SDS011;4094;49.948;11.574;2023-12-04T15:55:20;18.03;;;16.63;;
8102;SDS011;4094;49.948;11.574;2023-12-04T15:58:13;18.23;;;16.77;;
8102;SDS011;4094;49.948;11.574;2023-12-04T16:01:02;18.53;;;16.90;;
8102;SDS011;4094;49.948;11.574;2023-12-04T16:03:53;17.23;;;15.97;;
8102;SDS011;4094;49.948;11.574;2023-12-04T16:06:44;17.67;;;16.17;;
8102;SDS011;4094;49.948;11.574;2023-12-04T16:09:34;18.83;;;17.10;;
8102;SDS011;4094;49.948;11.574;2023-12-04T16:12:23;18.27;;;16.77;;
8102;SDS011;4094;49.948;11.574;2023-12-04T16:15:17;18.27;;;16.80;;
8102;SDS011;4094;49.948;11.574;2023-12-04T16:18:07;17.67;;;16.17;;
8102;SDS011;4094;49.948;11.574;2023-12-04T16:20:57;17.40;;;15.90;;
8102;SDS011;4094;49.948;11.574;2023-12-04T16:23:48;17.37;;;16.03;;
8102;SDS011;4094;49.948;11.574;2023-12-04T16:26:38;18.23;;;16.73;;
8102;SDS011;4094;49.948;11.574;2023-12-04T16:29:28;18.07;;;16.77;;
8102;SDS011;4094;49.948;11.574;2023-12-04T16:32:21;18.10;;;16.40;;
8102;SDS011;4094;49.948;11.574;2023-12-04T16:35:11;18.43;;;16.93;;
8102;SDS011;4094;49.948;11.574;2023-12-04T16:38:07;18.47;;;16.87;;
8102;SDS011;4094;49.948;11.574;2023-12-04T16:40:57;18.80;;;16.87;;
8102;SDS011;4094;49.948;11.574;2023-12-04T16:43:50;18.57;;;17.07;;
8102;SDS011;4094;49.948;11.574;2023-12-04T16:46:40;17.50;;;16.23;;
8102;SDS011;4094;49.948;11.574;2023-12-04T16:49:29;17.93;;;16.63;;
8102;SDS011;4094;49.948;11.574;2023-12-04T16:52:19;18.07;;;16.47;;
8102;SDS011;4094;49.948;11.574;2023-12-04T16:55:08;17.57;;;16.13;;